createdAt,value
2022-10-17T00:00:37.001Z,2.75
2022-10-17T00:02:38.321Z,3.20
2022-10-17T00:04:39.655Z,2.60
2022-10-17T00:06:41.056Z,2.90
2022-10-17T00:08:43.217Z,2.55
2022-10-17T00:10:44.633Z,2.80
2022-10-17T00:12:46.119Z,3.45
2022-10-17T00:14:47.453Z,3.03
2022-10-17T00:16:48.731Z,3.15
2022-10-17T00:18:50.056Z,3.05
2022-10-17T00:20:51.650Z,2.80
2022-10-17T00:22:53.172Z,3.20
2022-10-17T00:24:54.474Z,3.38
2022-10-17T00:26:55.730Z,3.05
2022-10-17T00:28:57.137Z,2.83
2022-10-17T00:30:59.456Z,2.83
2022-10-17T00:33:00.776Z,2.50
2022-10-17T00:35:02.119Z,2.78
2022-10-17T00:37:03.438Z,2.70
2022-10-17T00:39:04.757Z,2.90
2022-10-17T00:41:06.355Z,2.40
2022-10-17T00:43:17.844Z,2.70
2022-10-17T00:45:23.640Z,2.55
2022-10-17T00:47:25.302Z,2.38
2022-10-17T00:49:28.429Z,2.60
2022-10-17T00:51:49.955Z,2.70
2022-10-17T00:53:51.818Z,2.97
2022-10-17T00:55:53.942Z,2.80
2022-10-17T00:57:56.207Z,2.63
2022-10-17T00:59:58.088Z,2.70
2022-10-17T01:02:04.468Z,3.00
2022-10-17T01:04:05.968Z,3.03
2022-10-17T01:06:07.255Z,3.22
2022-10-17T01:08:09.154Z,3.50
2022-10-17T01:10:11.272Z,2.72
2022-10-17T01:12:18.364Z,2.92
2022-10-17T01:14:31.271Z,3.15
2022-10-17T01:16:38.234Z,3.03
2022-10-17T01:18:57.894Z,3.05
2022-10-17T01:21:02.026Z,3.13
2022-10-17T01:23:09.212Z,2.75
2022-10-17T01:25:29.075Z,3.03
2022-10-17T01:27:42.305Z,3.47
2022-10-17T01:29:46.487Z,2.92
2022-10-17T01:31:50.373Z,2.80
2022-10-17T01:33:57.839Z,2.80
2022-10-17T01:36:04.794Z,3.10
2022-10-17T01:38:20.610Z,2.88
2022-10-17T01:40:24.515Z,3.00
2022-10-17T01:42:33.444Z,2.85
2022-10-17T01:44:54.071Z,3.03
2022-10-17T01:47:00.260Z,3.17
2022-10-17T01:49:02.397Z,3.08
2022-10-17T01:51:13.000Z,2.80
2022-10-17T01:53:20.185Z,2.67
2022-10-17T01:55:23.774Z,2.47
2022-10-17T01:57:28.255Z,2.92
2022-10-17T01:59:33.716Z,2.53
2022-10-17T02:01:37.500Z,2.83
2022-10-17T02:03:40.830Z,3.10
2022-10-17T02:05:42.823Z,2.90
2022-10-17T02:07:44.217Z,2.90
2022-10-17T02:09:45.743Z,2.97
2022-10-17T02:11:56.243Z,2.80
2022-10-17T02:14:06.848Z,2.67
2022-10-17T02:18:12.460Z,2.80
2022-10-17T02:20:13.715Z,2.90
2022-10-17T02:22:14.964Z,2.83
2022-10-17T02:24:25.124Z,3.00
2022-10-17T02:26:41.060Z,2.80
2022-10-17T02:28:46.233Z,3.28
2022-10-17T02:30:53.079Z,3.10
2022-10-17T02:33:14.659Z,3.10
2022-10-17T02:35:16.836Z,3.17
2022-10-17T02:37:22.064Z,3.05
2022-10-17T02:39:24.340Z,2.90
2022-10-17T02:41:26.016Z,3.03
2022-10-17T02:43:28.097Z,3.08
2022-10-17T02:45:30.322Z,3.03
2022-10-17T02:47:34.427Z,3.03
2022-10-17T02:49:37.556Z,3.15
2022-10-17T02:51:41.731Z,3.20
2022-10-17T02:53:43.123Z,3.05
2022-10-17T02:55:51.336Z,3.08
2022-10-17T02:57:57.171Z,2.90
2022-10-17T03:00:00.014Z,3.20
2022-10-17T03:02:05.132Z,3.40
2022-10-17T03:04:10.366Z,3.13
2022-10-17T03:06:11.722Z,3.05
2022-10-17T03:08:13.077Z,2.97
2022-10-17T03:10:14.480Z,3.13
2022-10-17T03:12:15.788Z,3.10
2022-10-17T03:14:17.081Z,2.47
2022-10-17T03:16:18.423Z,2.90
2022-10-17T03:18:19.691Z,2.60
2022-10-17T03:20:20.993Z,2.50
2022-10-17T03:22:22.305Z,2.78
2022-10-17T03:24:23.658Z,2.65
2022-10-17T03:26:25.008Z,2.70
2022-10-17T03:28:26.343Z,2.90
2022-10-17T03:30:27.971Z,3.10
2022-10-17T03:32:29.259Z,2.67
2022-10-17T03:34:30.564Z,3.40
2022-10-17T03:36:31.895Z,2.65
2022-10-17T03:38:33.862Z,3.20
2022-10-17T03:40:35.200Z,3.88
2022-10-17T03:42:36.476Z,2.88
2022-10-17T03:44:37.737Z,2.60
2022-10-17T03:46:39.028Z,2.97
2022-10-17T03:48:40.339Z,3.20
2022-10-17T03:50:41.769Z,3.58
2022-10-17T03:52:46.041Z,3.47
2022-10-17T03:54:47.348Z,3.70
2022-10-17T03:56:48.715Z,3.58
2022-10-17T03:58:50.206Z,3.10
2022-10-17T04:00:52.380Z,3.00
2022-10-17T04:02:53.785Z,3.40
2022-10-17T04:04:55.070Z,3.55
2022-10-17T04:06:56.360Z,2.90
2022-10-17T04:08:57.703Z,2.78
2022-10-17T04:10:59.504Z,3.00
2022-10-17T04:13:00.798Z,3.30
2022-10-17T04:15:02.126Z,3.20
2022-10-17T04:17:03.563Z,3.60
2022-10-17T04:19:05.036Z,3.17
2022-10-17T04:21:07.151Z,3.10
2022-10-17T04:23:08.485Z,3.13
2022-10-17T04:25:09.826Z,3.50
2022-10-17T04:27:11.167Z,3.00
2022-10-17T04:29:12.493Z,2.63
2022-10-17T04:31:14.535Z,2.95
2022-10-17T04:33:15.791Z,3.10
2022-10-17T04:35:17.148Z,2.92
2022-10-17T04:37:18.445Z,2.90
2022-10-17T04:39:19.765Z,3.45
2022-10-17T04:41:21.115Z,2.97
2022-10-17T04:43:22.429Z,3.00
2022-10-17T04:45:23.776Z,3.50
2022-10-17T04:47:25.125Z,3.40
2022-10-17T04:49:26.536Z,3.30
2022-10-17T04:51:27.903Z,3.30
2022-10-17T04:53:30.971Z,3.45
2022-10-17T04:55:36.447Z,3.50
2022-10-17T04:57:37.800Z,3.13
2022-10-17T04:59:39.106Z,4.00
2022-10-17T05:01:40.464Z,3.90
2022-10-17T05:03:41.958Z,3.47
2022-10-17T05:05:43.582Z,3.50
2022-10-17T05:07:44.879Z,3.58
2022-10-17T05:09:46.156Z,3.80
2022-10-17T05:11:47.633Z,3.88
2022-10-17T05:14:02.057Z,3.45
2022-10-17T05:16:03.375Z,3.10
2022-10-17T05:18:05.282Z,3.20
2022-10-17T05:20:06.936Z,3.30
2022-10-17T05:22:08.492Z,3.80
2022-10-17T05:24:10.974Z,3.53
2022-10-17T05:26:12.769Z,3.60
2022-10-17T05:28:14.069Z,3.50
2022-10-17T05:30:15.528Z,3.60
2022-10-17T05:32:16.833Z,3.40
2022-10-17T05:34:18.191Z,3.83
2022-10-17T05:36:19.505Z,4.00
2022-10-17T05:38:20.845Z,4.15
2022-10-17T05:40:22.217Z,4.00
2022-10-17T05:42:23.956Z,4.10
2022-10-17T05:44:25.396Z,4.20
2022-10-17T05:46:26.771Z,3.80
2022-10-17T05:48:28.098Z,3.38
2022-10-17T05:50:29.415Z,3.25
2022-10-17T05:52:31.161Z,3.53
2022-10-17T05:54:32.913Z,3.55
2022-10-17T05:56:37.528Z,3.40
2022-10-17T05:58:50.213Z,3.90
2022-10-17T06:00:57.209Z,3.60
2022-10-17T06:02:58.513Z,3.08
2022-10-17T06:04:59.875Z,2.50
2022-10-17T06:07:01.221Z,3.00
2022-10-17T06:09:02.589Z,3.00
2022-10-17T06:11:07.505Z,2.88
2022-10-17T06:13:11.421Z,3.00
2022-10-17T06:15:13.137Z,2.38
2022-10-17T06:17:16.246Z,3.55
2022-10-17T06:19:17.797Z,3.70
2022-10-17T06:21:21.830Z,4.07
2022-10-17T06:23:23.132Z,4.10
2022-10-17T06:25:24.449Z,3.42
2022-10-17T06:27:25.849Z,3.22
2022-10-17T06:29:27.123Z,3.10
2022-10-17T06:31:28.444Z,2.90
2022-10-17T06:33:29.888Z,3.05
2022-10-17T06:35:31.326Z,3.10
2022-10-17T06:37:36.318Z,3.40
2022-10-17T06:39:38.397Z,3.60
2022-10-17T06:41:41.424Z,3.00
2022-10-17T06:43:46.094Z,3.00
2022-10-17T06:45:47.796Z,3.30
2022-10-17T06:47:49.829Z,2.78
2022-10-17T06:49:51.188Z,3.20
2022-10-17T06:51:52.589Z,2.95
2022-10-17T06:53:53.945Z,3.28
2022-10-17T06:55:58.159Z,3.20
2022-10-17T06:57:59.459Z,3.35
2022-10-17T07:00:00.797Z,3.15
2022-10-17T07:02:02.527Z,3.30
2022-10-17T07:04:03.870Z,2.80
2022-10-17T07:06:05.221Z,2.80
2022-10-17T07:08:06.655Z,2.47
2022-10-17T07:10:09.245Z,2.58
2022-10-17T07:12:12.696Z,2.38
2022-10-17T07:14:14.092Z,2.70
2022-10-17T07:16:15.703Z,2.80
2022-10-17T07:18:17.073Z,3.15
2022-10-17T07:20:18.529Z,3.08
2022-10-17T07:22:19.836Z,2.80
2022-10-17T07:24:21.215Z,3.13
2022-10-17T07:26:22.671Z,3.03
2022-10-17T07:28:24.068Z,2.95
2022-10-17T07:30:25.541Z,2.72
2022-10-17T07:32:26.897Z,3.20
2022-10-17T07:34:30.782Z,3.50
2022-10-17T07:36:32.132Z,3.53
2022-10-17T07:38:33.907Z,3.50
2022-10-17T07:40:35.393Z,3.45
2022-10-17T07:42:36.743Z,2.85
2022-10-17T07:44:38.117Z,3.30
2022-10-17T07:46:39.534Z,3.20
2022-10-17T07:48:41.052Z,3.63
2022-10-17T07:50:42.334Z,3.90
2022-10-17T07:52:43.813Z,3.60
2022-10-17T07:54:45.196Z,3.95
2022-10-17T07:56:50.389Z,4.53
2022-10-17T07:58:52.210Z,3.95
2022-10-17T08:00:53.670Z,4.25
2022-10-17T08:02:55.144Z,4.32
2022-10-17T08:04:56.485Z,3.33
2022-10-17T08:07:17.919Z,4.60
2022-10-17T08:09:19.314Z,4.40
2022-10-17T08:11:21.243Z,4.05
2022-10-17T08:13:23.052Z,3.80
2022-10-17T08:15:27.999Z,3.00
2022-10-17T08:17:34.469Z,3.35
2022-10-17T08:19:38.311Z,3.67
2022-10-17T08:21:40.227Z,3.17
2022-10-17T08:23:41.776Z,3.20
2022-10-17T08:25:43.138Z,3.30
2022-10-17T08:27:44.429Z,3.95
2022-10-17T08:29:48.393Z,4.15
2022-10-17T08:31:52.429Z,3.50
2022-10-17T08:33:57.610Z,2.70
2022-10-17T08:36:01.888Z,2.85
2022-10-17T08:38:03.610Z,2.45
2022-10-17T08:40:05.241Z,2.50
2022-10-17T08:42:06.502Z,3.00
2022-10-17T08:44:19.897Z,2.50
2022-10-17T08:46:21.331Z,2.83
2022-10-17T08:48:24.433Z,2.42
2022-10-17T08:50:30.497Z,2.72
2022-10-17T08:52:31.761Z,3.15
2022-10-17T08:54:41.971Z,3.28
2022-10-17T08:56:48.790Z,3.33
2022-10-17T08:58:51.562Z,3.20
2022-10-17T09:00:58.727Z,2.78
2022-10-17T09:03:09.186Z,3.10
2022-10-17T09:05:13.408Z,2.25
2022-10-17T09:07:32.849Z,2.75
2022-10-17T09:09:47.592Z,2.85
2022-10-17T09:11:56.258Z,3.08
2022-10-17T09:14:04.865Z,2.97
2022-10-17T09:16:24.599Z,3.00
2022-10-17T09:18:28.289Z,2.90
2022-10-17T09:20:36.524Z,3.00
2022-10-17T09:22:41.048Z,2.60
2022-10-17T09:24:50.459Z,2.90
2022-10-17T09:26:52.791Z,2.67
2022-10-17T09:28:56.269Z,2.78
2022-10-17T09:31:00.331Z,2.85
2022-10-17T09:33:10.855Z,2.50
2022-10-17T09:35:17.373Z,2.50
2022-10-17T09:37:19.363Z,2.45
2022-10-17T09:39:24.623Z,2.47
2022-10-17T09:43:59.333Z,2.70
2022-10-17T09:46:19.849Z,2.50
2022-10-17T09:48:26.677Z,2.97
2022-10-17T09:50:30.277Z,2.72
2022-10-17T09:52:34.988Z,3.03
2022-10-17T09:54:40.821Z,2.75
2022-10-17T09:57:01.992Z,4.10
2022-10-17T09:59:03.352Z,3.40
2022-10-17T10:01:22.908Z,3.20
2022-10-17T10:03:25.977Z,3.10
2022-10-17T10:05:27.340Z,3.33
2022-10-17T10:07:30.117Z,3.08
2022-10-17T10:09:33.350Z,3.00
2022-10-17T10:11:47.127Z,3.40
2022-10-17T10:13:49.505Z,2.58
2022-10-17T10:15:50.897Z,2.60
2022-10-17T10:17:52.351Z,2.75
2022-10-17T10:19:53.800Z,2.20
2022-10-17T10:21:56.813Z,2.20
2022-10-17T10:24:06.113Z,2.35
2022-10-17T10:26:27.353Z,2.75
2022-10-17T10:28:30.935Z,2.40
2022-10-17T10:30:36.156Z,2.38
2022-10-17T10:32:40.588Z,2.40
2022-10-17T10:34:47.049Z,2.42
2022-10-17T10:36:48.333Z,2.85
2022-10-17T10:38:55.069Z,2.72
2022-10-17T10:41:01.538Z,2.03
2022-10-17T10:43:05.600Z,2.53
2022-10-17T10:47:39.529Z,2.50
2022-10-17T10:49:41.687Z,2.72
2022-10-17T10:51:44.925Z,2.65
2022-10-17T10:53:53.194Z,2.72
2022-10-17T10:56:00.006Z,2.40
2022-10-17T10:58:20.459Z,2.45
2022-10-17T11:00:24.962Z,2.55
2022-10-17T11:02:29.516Z,2.80
2022-10-17T11:04:48.348Z,2.58
2022-10-17T11:06:52.562Z,2.80
2022-10-17T11:09:16.506Z,2.60
2022-10-17T11:11:24.730Z,2.60
2022-10-17T11:13:32.674Z,2.60
2022-10-17T11:15:36.893Z,2.67
2022-10-17T11:17:40.332Z,2.58
2022-10-17T11:19:46.839Z,2.58
2022-10-17T11:21:53.578Z,2.65
2022-10-17T11:24:05.600Z,3.13
2022-10-17T11:26:13.842Z,3.15
2022-10-17T11:28:16.531Z,2.42
2022-10-17T11:30:18.043Z,3.83
2022-10-17T11:32:25.449Z,2.50
2022-10-17T11:34:29.469Z,2.80
2022-10-17T11:36:32.446Z,3.00
2022-10-17T11:38:33.802Z,2.60
2022-10-17T11:40:35.928Z,2.40
2022-10-17T11:42:43.450Z,2.50
2022-10-17T11:44:44.916Z,2.40
2022-10-17T11:46:48.782Z,2.53
2022-10-17T11:49:02.487Z,2.65
2022-10-17T11:53:40.525Z,2.60
2022-10-17T11:55:42.943Z,2.40
2022-10-17T11:57:55.140Z,3.05
2022-10-17T11:59:59.347Z,2.40
2022-10-17T12:02:04.264Z,2.22
2022-10-17T12:04:14.628Z,2.58
2022-10-17T12:06:29.246Z,2.08
2022-10-17T12:08:31.429Z,2.40
2022-10-17T12:10:39.127Z,2.90
2022-10-17T12:12:40.569Z,3.15
2022-10-17T12:14:43.580Z,2.30
2022-10-17T12:16:45.659Z,2.10
2022-10-17T12:18:48.216Z,2.50
2022-10-17T12:20:59.429Z,2.25
2022-10-17T12:23:00.709Z,2.17
2022-10-17T12:25:02.821Z,2.13
2022-10-17T12:27:22.565Z,1.80
2022-10-17T12:29:27.534Z,2.03
2022-10-17T12:31:33.939Z,2.00
2022-10-17T12:33:37.985Z,1.65
2022-10-17T12:35:39.387Z,2.00
2022-10-17T12:37:43.423Z,1.90
2022-10-17T12:39:44.764Z,1.80
2022-10-17T12:41:46.525Z,1.75
2022-10-17T12:45:51.880Z,1.98
2022-10-17T12:47:53.207Z,2.05
2022-10-17T12:49:56.718Z,2.10
2022-10-17T12:52:17.051Z,2.08
2022-10-17T12:54:18.488Z,1.88
2022-10-17T12:56:21.228Z,2.20
2022-10-17T12:58:22.953Z,1.88
2022-10-17T13:00:24.260Z,2.58
2022-10-17T13:02:27.924Z,1.70
2022-10-17T13:04:29.881Z,2.20
2022-10-17T13:06:32.400Z,2.00
2022-10-17T13:08:35.631Z,1.80
2022-10-17T13:10:40.763Z,1.80
2022-10-17T13:12:44.771Z,2.17
2022-10-17T13:14:46.967Z,1.75
2022-10-17T13:16:52.653Z,1.77
2022-10-17T13:18:54.292Z,1.80
2022-10-17T13:21:15.494Z,1.80
2022-10-17T13:23:24.027Z,1.65
2022-10-17T13:25:26.124Z,1.98
2022-10-17T13:27:31.433Z,1.75
2022-10-17T13:29:33.165Z,1.75
2022-10-17T13:31:36.006Z,1.65
2022-10-17T13:33:39.206Z,1.50
2022-10-17T13:36:00.549Z,1.70
2022-10-17T13:38:03.270Z,1.70
2022-10-17T13:40:17.540Z,2.00
2022-10-17T13:42:28.301Z,1.85
2022-10-17T13:44:32.882Z,1.65
2022-10-17T13:46:38.479Z,1.90
2022-10-17T13:48:40.983Z,1.65
2022-10-17T13:50:44.998Z,1.98
2022-10-17T13:52:46.531Z,2.20
2022-10-17T13:54:50.950Z,1.75
2022-10-17T13:59:01.504Z,1.83
2022-10-17T14:01:03.229Z,1.75
2022-10-17T14:03:04.661Z,2.25
2022-10-17T14:05:17.700Z,2.42
2022-10-17T14:07:31.426Z,1.80
2022-10-17T14:09:35.704Z,2.05
2022-10-17T14:11:41.348Z,2.53
2022-10-17T14:13:44.320Z,1.92
2022-10-17T14:15:45.792Z,1.73
2022-10-17T14:17:53.826Z,2.08
2022-10-17T14:20:14.092Z,1.70
2022-10-17T14:22:27.958Z,2.17
2022-10-17T14:24:30.264Z,1.85
2022-10-17T14:26:36.922Z,2.08
2022-10-17T14:28:39.677Z,1.80
2022-10-17T14:30:56.394Z,1.75
2022-10-17T14:32:59.960Z,1.83
2022-10-17T14:35:18.918Z,1.77
2022-10-17T14:37:24.158Z,1.65
2022-10-17T14:39:26.289Z,1.70
2022-10-17T14:41:44.873Z,1.58
2022-10-17T14:43:51.944Z,1.60
2022-10-17T14:45:56.704Z,1.65
2022-10-17T14:48:01.983Z,1.70
2022-10-17T14:50:23.561Z,1.80
2022-10-17T14:52:26.351Z,2.08
2022-10-17T14:54:29.757Z,1.83
2022-10-17T14:56:35.252Z,1.73
2022-10-17T14:58:36.562Z,2.10
2022-10-17T15:00:38.257Z,1.80
2022-10-17T15:02:39.686Z,2.90
2022-10-17T15:04:41.499Z,2.00
2022-10-17T15:06:42.945Z,1.83
2022-10-17T15:08:44.325Z,2.03
2022-10-17T15:10:46.170Z,2.00
2022-10-17T15:12:56.199Z,1.83
2022-10-17T15:15:06.138Z,2.45
2022-10-17T15:17:12.610Z,2.17
2022-10-17T15:19:14.132Z,1.92
2022-10-17T15:21:26.483Z,2.20
2022-10-17T15:23:38.871Z,2.25
2022-10-17T15:25:40.329Z,1.80
2022-10-17T15:27:41.623Z,1.77
2022-10-17T15:29:43.184Z,1.70
2022-10-17T15:31:44.534Z,2.03
2022-10-17T15:33:46.043Z,1.90
2022-10-17T15:35:47.421Z,2.30
2022-10-17T15:37:48.857Z,2.15
2022-10-17T15:39:54.045Z,1.92
2022-10-17T15:41:55.452Z,2.05
2022-10-17T15:43:57.029Z,2.03
2022-10-17T15:45:59.975Z,1.80
2022-10-17T15:48:04.602Z,1.80
2022-10-17T15:50:07.100Z,1.90
2022-10-17T15:52:08.828Z,1.95
2022-10-17T15:54:10.175Z,2.10
2022-10-17T15:56:27.926Z,2.13
2022-10-17T15:58:34.016Z,1.77
2022-10-17T16:00:35.423Z,2.10
2022-10-17T16:02:36.788Z,2.28
2022-10-17T16:04:38.096Z,2.00
2022-10-17T16:06:39.461Z,2.38
2022-10-17T16:08:40.886Z,2.30
2022-10-17T16:10:42.313Z,2.00
2022-10-17T16:12:44.067Z,2.15
2022-10-17T16:14:45.479Z,3.15
2022-10-17T16:16:46.783Z,2.70
2022-10-17T16:18:48.621Z,4.75
2022-10-17T16:20:49.956Z,6.20
2022-10-17T16:22:52.568Z,4.15
2022-10-17T16:24:58.656Z,3.83
2022-10-17T16:26:59.984Z,3.03
2022-10-17T16:29:03.444Z,2.63
2022-10-17T16:31:04.923Z,2.80
2022-10-17T16:33:06.203Z,3.25
2022-10-17T16:35:07.902Z,5.53
2022-10-17T16:37:09.288Z,3.22
2022-10-17T16:39:10.627Z,3.00
2022-10-17T16:41:32.171Z,3.08
2022-10-17T16:43:36.401Z,3.53
2022-10-17T16:45:37.807Z,3.33
2022-10-17T16:47:39.230Z,3.22
2022-10-17T16:49:43.005Z,3.25
2022-10-17T16:51:46.567Z,2.63
2022-10-17T16:53:50.123Z,3.20
2022-10-17T16:56:01.400Z,3.25
2022-10-17T16:58:02.813Z,3.33
2022-10-17T17:00:05.289Z,4.18
2022-10-17T17:02:06.682Z,3.80
2022-10-17T17:04:09.297Z,3.88
2022-10-17T17:06:19.110Z,3.90
2022-10-17T17:08:20.541Z,3.80
2022-10-17T17:10:21.854Z,3.10
2022-10-17T17:12:23.308Z,3.45
2022-10-17T17:14:24.628Z,3.30
2022-10-17T17:16:26.764Z,3.58
2022-10-17T17:18:28.671Z,3.50
2022-10-17T17:20:30.331Z,3.00
2022-10-17T17:22:31.782Z,6.75
2022-10-17T17:24:33.199Z,5.20
2022-10-17T17:26:38.898Z,4.72
2022-10-17T17:28:40.581Z,3.85
2022-10-17T17:30:42.067Z,4.15
2022-10-17T17:32:43.502Z,3.53
2022-10-17T17:34:44.766Z,4.50
2022-10-17T17:36:46.440Z,3.60
2022-10-17T17:38:48.424Z,3.85
2022-10-17T17:40:50.996Z,3.20
2022-10-17T17:42:52.681Z,3.28
2022-10-17T17:44:53.992Z,4.10
2022-10-17T17:46:55.370Z,3.80
2022-10-17T17:48:56.918Z,4.00
2022-10-17T17:51:02.547Z,3.70
2022-10-17T17:53:04.156Z,3.83
2022-10-17T17:55:05.886Z,4.50
2022-10-17T17:57:07.286Z,4.35
2022-10-17T17:59:10.496Z,4.28
2022-10-17T18:01:15.075Z,4.03
2022-10-17T18:03:16.762Z,3.70
2022-10-17T18:05:18.095Z,3.78
2022-10-17T18:07:19.418Z,3.63
2022-10-17T18:09:21.384Z,4.05
2022-10-17T18:11:22.675Z,4.68
2022-10-17T18:13:24.093Z,4.38
2022-10-17T18:15:25.392Z,3.25
2022-10-17T18:17:26.805Z,3.75
2022-10-17T18:19:29.549Z,3.70
2022-10-17T18:21:30.884Z,3.33
2022-10-17T18:23:32.190Z,2.97
2022-10-17T18:25:33.715Z,2.78
2022-10-17T18:27:35.090Z,3.47
2022-10-17T18:29:36.455Z,3.58
2022-10-17T18:31:37.843Z,3.30
2022-10-17T18:33:39.656Z,3.30
2022-10-17T18:35:41.141Z,3.05
2022-10-17T18:37:42.655Z,3.22
2022-10-17T18:39:45.006Z,3.45
2022-10-17T18:41:46.494Z,3.10
2022-10-17T18:43:48.479Z,2.75
2022-10-17T18:45:50.285Z,3.03
2022-10-17T18:47:54.286Z,3.53
2022-10-17T18:49:58.245Z,3.20
2022-10-17T18:52:00.525Z,3.60
2022-10-17T18:54:06.606Z,3.45
2022-10-17T18:56:11.202Z,3.00
2022-10-17T18:58:12.769Z,3.78
2022-10-17T19:00:14.924Z,3.40
2022-10-17T19:02:17.492Z,3.00
2022-10-17T19:04:19.083Z,3.03
2022-10-17T19:06:21.828Z,2.60
2022-10-17T19:08:23.463Z,2.72
2022-10-17T19:10:25.825Z,3.20
2022-10-17T19:12:54.297Z,3.45
2022-10-17T19:14:57.553Z,4.07
2022-10-17T19:16:59.933Z,3.42
2022-10-17T19:19:03.159Z,3.10
2022-10-17T19:21:06.706Z,3.58
2022-10-17T19:23:08.210Z,3.33
2022-10-17T19:25:12.734Z,3.42
2022-10-17T19:27:16.727Z,3.92
2022-10-17T19:29:19.440Z,3.58
2022-10-17T19:31:26.557Z,3.63
2022-10-17T19:35:35.541Z,2.85
2022-10-17T19:37:37.287Z,3.10
2022-10-17T19:39:40.285Z,3.08
2022-10-17T19:41:42.528Z,3.05
2022-10-17T19:43:44.167Z,3.67
2022-10-17T19:45:58.667Z,3.47
2022-10-17T19:48:00.334Z,4.53
2022-10-17T19:52:03.373Z,4.07
2022-10-17T19:54:07.180Z,4.63
2022-10-17T19:56:09.761Z,4.18
2022-10-17T19:58:11.395Z,5.05
2022-10-17T20:00:13.176Z,5.07
2022-10-17T20:02:16.475Z,5.45
2022-10-17T20:04:17.899Z,4.75
2022-10-17T20:06:19.896Z,4.95
2022-10-17T20:08:21.576Z,5.15
2022-10-17T20:10:25.813Z,4.60
2022-10-17T20:12:31.230Z,4.65
2022-10-17T20:14:35.252Z,5.93
2022-10-17T20:16:40.267Z,5.50
2022-10-17T20:18:44.622Z,4.55
2022-10-17T20:20:46.036Z,4.90
2022-10-17T20:22:47.549Z,4.43
2022-10-17T20:24:51.710Z,3.60
2022-10-17T20:26:53.226Z,3.50
2022-10-17T20:28:54.938Z,3.58
2022-10-17T20:30:56.495Z,3.70
2022-10-17T20:32:58.075Z,4.38
2022-10-17T20:34:59.631Z,4.18
2022-10-17T20:37:01.655Z,5.03
2022-10-17T20:39:03.497Z,4.65
2022-10-17T20:41:06.140Z,4.97
2022-10-17T20:43:08.027Z,4.53
2022-10-17T20:45:09.953Z,4.95
2022-10-17T20:47:16.112Z,4.40
2022-10-17T20:49:19.026Z,4.95
2022-10-17T20:51:21.128Z,5.32
2022-10-17T20:53:36.578Z,5.03
2022-10-17T20:55:42.130Z,4.10
2022-10-17T20:57:43.644Z,5.70
2022-10-17T20:59:45.949Z,5.32
2022-10-17T21:01:47.800Z,5.00
2022-10-17T21:03:49.643Z,5.18
2022-10-17T21:05:51.147Z,4.80
2022-10-17T21:07:52.559Z,4.97
2022-10-17T21:09:53.880Z,4.65
2022-10-17T21:11:56.131Z,5.28
2022-10-17T21:14:02.364Z,5.05
2022-10-17T21:16:04.645Z,4.97
2022-10-17T21:18:05.977Z,5.07
2022-10-17T21:20:07.549Z,5.40
2022-10-17T21:22:08.821Z,5.40
2022-10-17T21:24:14.561Z,5.00
2022-10-17T21:26:17.090Z,5.03
2022-10-17T21:28:18.396Z,4.70
2022-10-17T21:30:21.124Z,4.90
2022-10-17T21:32:33.489Z,4.72
2022-10-17T21:34:43.800Z,5.47
2022-10-17T21:36:45.181Z,4.68
2022-10-17T21:38:47.629Z,4.18
2022-10-17T21:40:51.488Z,4.22
2022-10-17T21:42:55.178Z,4.25
2022-10-17T21:44:56.551Z,4.38
2022-10-17T21:46:58.084Z,4.78
2022-10-17T21:49:00.023Z,3.90
2022-10-17T21:51:02.639Z,3.95
2022-10-17T21:53:03.959Z,4.00
2022-10-17T21:55:05.513Z,4.65
2022-10-17T21:57:06.848Z,4.50
2022-10-17T21:59:08.513Z,5.13
2022-10-17T22:01:13.871Z,5.95
2022-10-17T22:03:16.805Z,6.00
2022-10-17T22:05:18.271Z,5.90
2022-10-17T22:07:19.579Z,5.93
2022-10-17T22:09:25.864Z,5.47
2022-10-17T22:11:29.168Z,6.55
2022-10-17T22:13:30.555Z,6.78
2022-10-17T22:15:31.915Z,6.72
2022-10-17T22:17:33.484Z,6.75
2022-10-17T22:19:34.853Z,7.05
2022-10-17T22:21:36.997Z,6.32
2022-10-17T22:23:38.439Z,6.65
2022-10-17T22:25:39.755Z,6.63
2022-10-17T22:27:41.072Z,5.38
2022-10-17T22:29:42.425Z,5.68
2022-10-17T22:31:43.808Z,5.57
2022-10-17T22:33:45.397Z,5.78
2022-10-17T22:35:47.065Z,4.88
2022-10-17T22:37:48.392Z,5.95
2022-10-17T22:39:49.693Z,5.68
2022-10-17T22:41:51.059Z,6.35
2022-10-17T22:43:52.437Z,6.10
2022-10-17T22:45:58.659Z,5.13
2022-10-17T22:47:59.974Z,4.25
2022-10-17T22:50:01.298Z,4.28
2022-10-17T22:52:02.763Z,3.95
2022-10-17T22:54:04.149Z,3.83
2022-10-17T22:56:07.160Z,4.47
2022-10-17T22:58:08.476Z,4.10
2022-10-17T23:00:11.037Z,3.90
2022-10-17T23:02:12.608Z,4.50
2022-10-17T23:04:13.972Z,3.95
2022-10-17T23:06:15.275Z,4.00
2022-10-17T23:08:17.974Z,4.03
2022-10-17T23:10:19.247Z,3.58
2022-10-17T23:12:20.571Z,4.38
2022-10-17T23:14:21.945Z,4.60
2022-10-17T23:16:23.252Z,4.55
2022-10-17T23:18:25.575Z,3.92
2022-10-17T23:20:27.608Z,4.65
2022-10-17T23:22:29.125Z,3.70
2022-10-17T23:24:30.700Z,3.97
2022-10-17T23:26:31.996Z,3.85
2022-10-17T23:28:35.555Z,5.30
2022-10-17T23:30:38.001Z,4.03
2022-10-17T23:32:40.358Z,4.53
2022-10-17T23:34:41.685Z,5.10
2022-10-17T23:36:42.954Z,5.00
2022-10-17T23:38:45.161Z,5.00
2022-10-17T23:40:46.637Z,5.40
2022-10-17T23:42:47.946Z,4.70
2022-10-17T23:44:49.231Z,4.80
2022-10-17T23:46:50.591Z,4.38
2022-10-17T23:48:51.865Z,4.13
2022-10-17T23:50:54.004Z,4.88
2022-10-17T23:52:55.309Z,4.32
2022-10-17T23:54:56.593Z,4.35
2022-10-17T23:56:57.896Z,4.60
2022-10-17T23:58:59.175Z,4.40
